sensor_id;sensor_type;location;lat;lon;timestamp;P1;P2;P0
83024;PMS5003;72958;53.326;-1.496;2023-11-21T00:00:24;0;0;
83024;PMS5003;72958;53.326;-1.496;2023-11-21T00:02:53;0;0;
83024;PMS5003;72958;53.326;-1.496;2023-11-21T00:06:35;0;0;
83024;PMS5003;72958;53.326;-1.496;2023-11-21T00:10:26;0;0;
83024;PMS5003;72958;53.326;-1.496;2023-11-21T00:13:25;0;0;
83024;PMS5003;72958;53.326;-1.496;2023-11-21T00:16:13;0;0;
83024;PMS5003;72958;53.326;-1.496;2023-11-21T00:19:32;0;0;
83024;PMS5003;72958;53.326;-1.496;2023-11-21T00:22:26;0;0;
83024;PMS5003;72958;53.326;-1.496;2023-11-21T00:24:56;0;0;
83024;PMS5003;72958;53.326;-1.496;2023-11-21T00:27:39;0;0;
83024;PMS5003;72958;53.326;-1.496;2023-11-21T00:30:06;0;0;
83024;PMS5003;72958;53.326;-1.496;2023-11-21T00:32:32;0;0;
83024;PMS5003;72958;53.326;-1.496;2023-11-21T00:35:22;0;0;
83024;PMS5003;72958;53.326;-1.496;2023-11-21T00:39:03;0;0;
83024;PMS5003;72958;53.326;-1.496;2023-11-21T00:41:30;0;0;
83024;PMS5003;72958;53.326;-1.496;2023-11-21T00:44:42;0;0;
83024;PMS5003;72958;53.326;-1.496;2023-11-21T00:47:13;0;0;
83024;PMS5003;72958;53.326;-1.496;2023-11-21T00:50:13;0;0;
83024;PMS5003;72958;53.326;-1.496;2023-11-21T00:52:45;0;0;
83024;PMS5003;72958;53.326;-1.496;2023-11-21T00:55:24;0;0;
83024;PMS5003;72958;53.326;-1.496;2023-11-21T00:58:56;0;0;
83024;PMS5003;72958;53.326;-1.496;2023-11-21T01:01:34;0;0;
83024;PMS5003;72958;53.326;-1.496;2023-11-21T01:04:42;0;0;
83024;PMS5003;72958;53.326;-1.496;2023-11-21T01:07:30;0;0;
83024;PMS5003;72958;53.326;-1.496;2023-11-21T01:10:10;0;0;
83024;PMS5003;72958;53.326;-1.496;2023-11-21T01:12:44;1;1;
83024;PMS5003;72958;53.326;-1.496;2023-11-21T01:15:21;1;0;
83024;PMS5003;72958;53.326;-1.496;2023-11-21T01:18:38;0;0;
83024;PMS5003;72958;53.326;-1.496;2023-11-21T01:21:09;0;0;
83024;PMS5003;72958;53.326;-1.496;2023-11-21T01:23:53;0;0;
83024;PMS5003;72958;53.326;-1.496;2023-11-21T01:26:58;0;0;
83024;PMS5003;72958;53.326;-1.496;2023-11-21T01:30:40;0;0;
83024;PMS5003;72958;53.326;-1.496;2023-11-21T01:33:57;0;0;
83024;PMS5003;72958;53.326;-1.496;2023-11-21T01:36:42;0;0;
83024;PMS5003;72958;53.326;-1.496;2023-11-21T01:39:31;0;0;
83024;PMS5003;72958;53.326;-1.496;2023-11-21T01:42:07;0;0;
83024;PMS5003;72958;53.326;-1.496;2023-11-21T01:44:58;0;0;
83024;PMS5003;72958;53.326;-1.496;2023-11-21T01:47:25;0;0;
83024;PMS5003;72958;53.326;-1.496;2023-11-21T01:50:20;0;0;
83024;PMS5003;72958;53.326;-1.496;2023-11-21T01:52:54;0;0;
83024;PMS5003;72958;53.326;-1.496;2023-11-21T01:55:33;0;0;
83024;PMS5003;72958;53.326;-1.496;2023-11-21T01:58:39;0;0;
83024;PMS5003;72958;53.326;-1.496;2023-11-21T02:01:09;0;0;
83024;PMS5003;72958;53.326;-1.496;2023-11-21T02:03:38;0;0;
83024;PMS5003;72958;53.326;-1.496;2023-11-21T02:06:36;0;0;
83024;PMS5003;72958;53.326;-1.496;2023-11-21T02:09:28;0;0;
83024;PMS5003;72958;53.326;-1.496;2023-11-21T02:12:02;0;0;
83024;PMS5003;72958;53.326;-1.496;2023-11-21T02:14:43;0;0;
83024;PMS5003;72958;53.326;-1.496;2023-11-21T02:17:31;0;0;
83024;PMS5003;72958;53.326;-1.496;2023-11-21T02:20:27;0;0;
83024;PMS5003;72958;53.326;-1.496;2023-11-21T02:23:02;0;0;
83024;PMS5003;72958;53.326;-1.496;2023-11-21T02:25:49;0;0;
83024;PMS5003;72958;53.326;-1.496;2023-11-21T02:28:15;0;0;
83024;PMS5003;72958;53.326;-1.496;2023-11-21T02:32:47;0;0;
83024;PMS5003;72958;53.326;-1.496;2023-11-21T02:35:20;0;0;
83024;PMS5003;72958;53.326;-1.496;2023-11-21T02:37:46;0;0;
83024;PMS5003;72958;53.326;-1.496;2023-11-21T02:40:31;0;0;
83024;PMS5003;72958;53.326;-1.496;2023-11-21T02:43:05;0;0;
83024;PMS5003;72958;53.326;-1.496;2023-11-21T02:46:04;0;0;
83024;PMS5003;72958;53.326;-1.496;2023-11-21T02:48:41;0;0;
83024;PMS5003;72958;53.326;-1.496;2023-11-21T02:51:17;0;0;
83024;PMS5003;72958;53.326;-1.496;2023-11-21T02:54:06;1;0;
83024;PMS5003;72958;53.326;-1.496;2023-11-21T02:56:30;0;0;
83024;PMS5003;72958;53.326;-1.496;2023-11-21T02:59:30;0;0;
83024;PMS5003;72958;53.326;-1.496;2023-11-21T03:02:04;0;0;
83024;PMS5003;72958;53.326;-1.496;2023-11-21T03:04:42;0;0;
83024;PMS5003;72958;53.326;-1.496;2023-11-21T03:07:15;0;0;
83024;PMS5003;72958;53.326;-1.496;2023-11-21T03:09:40;0;0;
83024;PMS5003;72958;53.326;-1.496;2023-11-21T03:12:29;0;0;
83024;PMS5003;72958;53.326;-1.496;2023-11-21T03:15:00;0;0;
83024;PMS5003;72958;53.326;-1.496;2023-11-21T03:18:42;0;0;
83024;PMS5003;72958;53.326;-1.496;2023-11-21T03:21:36;5;0;
83024;PMS5003;72958;53.326;-1.496;2023-11-21T03:24:29;0;0;
83024;PMS5003;72958;53.326;-1.496;2023-11-21T03:27:05;0;0;
83024;PMS5003;72958;53.326;-1.496;2023-11-21T03:29:26;0;0;
83024;PMS5003;72958;53.326;-1.496;2023-11-21T03:32:04;0;0;
83024;PMS5003;72958;53.326;-1.496;2023-11-21T03:34:30;0;0;
83024;PMS5003;72958;53.326;-1.496;2023-11-21T03:37:19;0;0;
83024;PMS5003;72958;53.326;-1.496;2023-11-21T03:39:49;0;0;
83024;PMS5003;72958;53.326;-1.496;2023-11-21T03:42:17;0;0;
83024;PMS5003;72958;53.326;-1.496;2023-11-21T03:45:05;0;0;
83024;PMS5003;72958;53.326;-1.496;2023-11-21T03:47:49;0;0;
83024;PMS5003;72958;53.326;-1.496;2023-11-21T03:50:27;2;0;
83024;PMS5003;72958;53.326;-1.496;2023-11-21T03:52:57;0;0;
83024;PMS5003;72958;53.326;-1.496;2023-11-21T03:56:07;0;0;
83024;PMS5003;72958;53.326;-1.496;2023-11-21T03:58:38;0;0;
83024;PMS5003;72958;53.326;-1.496;2023-11-21T04:01:07;0;0;
83024;PMS5003;72958;53.326;-1.496;2023-11-21T04:03:43;0;0;
83024;PMS5003;72958;53.326;-1.496;2023-11-21T04:06:14;0;0;
83024;PMS5003;72958;53.326;-1.496;2023-11-21T04:09:00;0;0;
83024;PMS5003;72958;53.326;-1.496;2023-11-21T04:11:43;0;0;
83024;PMS5003;72958;53.326;-1.496;2023-11-21T04:14:20;0;0;
83024;PMS5003;72958;53.326;-1.496;2023-11-21T04:16:57;0;0;
83024;PMS5003;72958;53.326;-1.496;2023-11-21T04:19:33;0;0;
83024;PMS5003;72958;53.326;-1.496;2023-11-21T04:22:03;0;0;
83024;PMS5003;72958;53.326;-1.496;2023-11-21T04:24:37;0;0;
83024;PMS5003;72958;53.326;-1.496;2023-11-21T04:27:13;0;0;
83024;PMS5003;72958;53.326;-1.496;2023-11-21T04:30:12;0;0;
83024;PMS5003;72958;53.326;-1.496;2023-11-21T04:32:42;0;0;
83024;PMS5003;72958;53.326;-1.496;2023-11-21T04:35:13;0;0;
83024;PMS5003;72958;53.326;-1.496;2023-11-21T04:38:05;0;0;
83024;PMS5003;72958;53.326;-1.496;2023-11-21T04:40:30;0;0;
83024;PMS5003;72958;53.326;-1.496;2023-11-21T04:43:01;0;0;
83024;PMS5003;72958;53.326;-1.496;2023-11-21T04:46:04;0;0;
83024;PMS5003;72958;53.326;-1.496;2023-11-21T04:49:04;0;0;
83024;PMS5003;72958;53.326;-1.496;2023-11-21T04:51:44;0;0;
83024;PMS5003;72958;53.326;-1.496;2023-11-21T04:54:17;0;0;
83024;PMS5003;72958;53.326;-1.496;2023-11-21T04:57:17;0;0;
83024;PMS5003;72958;53.326;-1.496;2023-11-21T05:00:22;0;0;
83024;PMS5003;72958;53.326;-1.496;2023-11-21T05:03:54;0;0;
83024;PMS5003;72958;53.326;-1.496;2023-11-21T05:07:16;0;0;
83024;PMS5003;72958;53.326;-1.496;2023-11-21T05:10:00;0;0;
83024;PMS5003;72958;53.326;-1.496;2023-11-21T05:13:02;0;0;
83024;PMS5003;72958;53.326;-1.496;2023-11-21T05:15:32;0;0;
83024;PMS5003;72958;53.326;-1.496;2023-11-21T05:18:41;0;0;
83024;PMS5003;72958;53.326;-1.496;2023-11-21T05:21:15;0;0;
83024;PMS5003;72958;53.326;-1.496;2023-11-21T05:23:41;0;0;
83024;PMS5003;72958;53.326;-1.496;2023-11-21T05:26:20;0;0;
83024;PMS5003;72958;53.326;-1.496;2023-11-21T05:29:05;0;0;
83024;PMS5003;72958;53.326;-1.496;2023-11-21T05:32:49;0;0;
83024;PMS5003;72958;53.326;-1.496;2023-11-21T05:35:17;0;0;
83024;PMS5003;72958;53.326;-1.496;2023-11-21T05:37:55;0;0;
83024;PMS5003;72958;53.326;-1.496;2023-11-21T05:40:35;0;0;
83024;PMS5003;72958;53.326;-1.496;2023-11-21T05:43:20;0;0;
83024;PMS5003;72958;53.326;-1.496;2023-11-21T05:46:01;0;0;
83024;PMS5003;72958;53.326;-1.496;2023-11-21T05:48:32;0;0;
83024;PMS5003;72958;53.326;-1.496;2023-11-21T05:51:11;0;0;
83024;PMS5003;72958;53.326;-1.496;2023-11-21T05:54:43;0;0;
83024;PMS5003;72958;53.326;-1.496;2023-11-21T05:57:28;0;0;
83024;PMS5003;72958;53.326;-1.496;2023-11-21T06:00:34;0;0;
83024;PMS5003;72958;53.326;-1.496;2023-11-21T06:03:04;0;0;
83024;PMS5003;72958;53.326;-1.496;2023-11-21T06:06:00;0;0;
83024;PMS5003;72958;53.326;-1.496;2023-11-21T06:08:26;0;0;
83024;PMS5003;72958;53.326;-1.496;2023-11-21T06:11:39;0;0;
83024;PMS5003;72958;53.326;-1.496;2023-11-21T06:14:07;0;0;
83024;PMS5003;72958;53.326;-1.496;2023-11-21T06:16:33;1;0;
83024;PMS5003;72958;53.326;-1.496;2023-11-21T06:19:03;1;0;
83024;PMS5003;72958;53.326;-1.496;2023-11-21T06:21:36;0;0;
83024;PMS5003;72958;53.326;-1.496;2023-11-21T06:25:01;0;0;
83024;PMS5003;72958;53.326;-1.496;2023-11-21T06:27:29;0;0;
83024;PMS5003;72958;53.326;-1.496;2023-11-21T06:29:57;0;0;
83024;PMS5003;72958;53.326;-1.496;2023-11-21T06:32:45;0;0;
83024;PMS5003;72958;53.326;-1.496;2023-11-21T06:35:35;0;0;
83024;PMS5003;72958;53.326;-1.496;2023-11-21T06:38:06;0;0;
83024;PMS5003;72958;53.326;-1.496;2023-11-21T06:40:39;0;0;
83024;PMS5003;72958;53.326;-1.496;2023-11-21T06:43:07;0;0;
83024;PMS5003;72958;53.326;-1.496;2023-11-21T06:46:15;0;0;
83024;PMS5003;72958;53.326;-1.496;2023-11-21T06:49:07;0;0;
83024;PMS5003;72958;53.326;-1.496;2023-11-21T06:52:28;2;0;
83024;PMS5003;72958;53.326;-1.496;2023-11-21T06:55:20;0;0;
83024;PMS5003;72958;53.326;-1.496;2023-11-21T06:58:33;0;0;
83024;PMS5003;72958;53.326;-1.496;2023-11-21T07:01:13;1;1;
83024;PMS5003;72958;53.326;-1.496;2023-11-21T07:03:57;0;0;
83024;PMS5003;72958;53.326;-1.496;2023-11-21T07:06:32;1;1;
83024;PMS5003;72958;53.326;-1.496;2023-11-21T07:09:11;0;0;
83024;PMS5003;72958;53.326;-1.496;2023-11-21T07:11:36;0;0;
83024;PMS5003;72958;53.326;-1.496;2023-11-21T07:14:20;0;0;
83024;PMS5003;72958;53.326;-1.496;2023-11-21T07:16:59;0;0;
83024;PMS5003;72958;53.326;-1.496;2023-11-21T07:20:07;0;0;
83024;PMS5003;72958;53.326;-1.496;2023-11-21T07:22:33;0;0;
83024;PMS5003;72958;53.326;-1.496;2023-11-21T07:25:01;0;0;
83024;PMS5003;72958;53.326;-1.496;2023-11-21T07:28:16;1;1;
83024;PMS5003;72958;53.326;-1.496;2023-11-21T07:31:05;2;2;
83024;PMS5003;72958;53.326;-1.496;2023-11-21T07:33:33;1;1;
83024;PMS5003;72958;53.326;-1.496;2023-11-21T07:36:12;0;0;
83024;PMS5003;72958;53.326;-1.496;2023-11-21T07:38:44;3;3;
83024;PMS5003;72958;53.326;-1.496;2023-11-21T07:42:56;0;0;
83024;PMS5003;72958;53.326;-1.496;2023-11-21T07:46:20;1;1;
83024;PMS5003;72958;53.326;-1.496;2023-11-21T07:49:48;0;0;
83024;PMS5003;72958;53.326;-1.496;2023-11-21T07:52:30;0;0;
83024;PMS5003;72958;53.326;-1.496;2023-11-21T07:54:57;1;1;
83024;PMS5003;72958;53.326;-1.496;2023-11-21T07:59:17;1;1;
83024;PMS5003;72958;53.326;-1.496;2023-11-21T08:01:59;0;0;
83024;PMS5003;72958;53.326;-1.496;2023-11-21T08:05:30;2;1;
83024;PMS5003;72958;53.326;-1.496;2023-11-21T08:08:11;0;0;
83024;PMS5003;72958;53.326;-1.496;2023-11-21T08:10:49;0;0;
83024;PMS5003;72958;53.326;-1.496;2023-11-21T08:13:16;1;1;
83024;PMS5003;72958;53.326;-1.496;2023-11-21T08:16:29;1;1;
83024;PMS5003;72958;53.326;-1.496;2023-11-21T08:18:59;1;1;
83024;PMS5003;72958;53.326;-1.496;2023-11-21T08:21:26;0;0;
83024;PMS5003;72958;53.326;-1.496;2023-11-21T08:23:57;1;1;
83024;PMS5003;72958;53.326;-1.496;2023-11-21T08:26:47;0;0;
83024;PMS5003;72958;53.326;-1.496;2023-11-21T08:29:33;1;1;
83024;PMS5003;72958;53.326;-1.496;2023-11-21T08:32:01;0;0;
83024;PMS5003;72958;53.326;-1.496;2023-11-21T08:34:27;1;1;
83024;PMS5003;72958;53.326;-1.496;2023-11-21T08:37:00;2;2;
83024;PMS5003;72958;53.326;-1.496;2023-11-21T08:40:17;2;2;
83024;PMS5003;72958;53.326;-1.496;2023-11-21T08:42:54;1;1;
83024;PMS5003;72958;53.326;-1.496;2023-11-21T08:45:26;0;0;
83024;PMS5003;72958;53.326;-1.496;2023-11-21T08:48:37;0;0;
83024;PMS5003;72958;53.326;-1.496;2023-11-21T08:51:21;0;0;
83024;PMS5003;72958;53.326;-1.496;2023-11-21T08:53:55;1;1;
83024;PMS5003;72958;53.326;-1.496;2023-11-21T08:56:30;1;1;
83024;PMS5003;72958;53.326;-1.496;2023-11-21T08:58:59;1;1;
83024;PMS5003;72958;53.326;-1.496;2023-11-21T09:01:33;1;1;
83024;PMS5003;72958;53.326;-1.496;2023-11-21T09:04:01;3;3;
83024;PMS5003;72958;53.326;-1.496;2023-11-21T09:07:06;2;2;
83024;PMS5003;72958;53.326;-1.496;2023-11-21T09:09:55;2;2;
83024;PMS5003;72958;53.326;-1.496;2023-11-21T09:12:26;3;2;
83024;PMS5003;72958;53.326;-1.496;2023-11-21T09:15:02;3;3;
83024;PMS5003;72958;53.326;-1.496;2023-11-21T09:18:05;2;2;
83024;PMS5003;72958;53.326;-1.496;2023-11-21T09:20:42;0;0;
83024;PMS5003;72958;53.326;-1.496;2023-11-21T09:23:06;2;1;
83024;PMS5003;72958;53.326;-1.496;2023-11-21T09:25:58;3;2;
83024;PMS5003;72958;53.326;-1.496;2023-11-21T09:28:44;3;3;
83024;PMS5003;72958;53.326;-1.496;2023-11-21T09:31:11;3;3;
83024;PMS5003;72958;53.326;-1.496;2023-11-21T09:34:44;2;2;
83024;PMS5003;72958;53.326;-1.496;2023-11-21T09:37:11;1;1;
83024;PMS5003;72958;53.326;-1.496;2023-11-21T09:40:10;1;1;
83024;PMS5003;72958;53.326;-1.496;2023-11-21T09:43:58;0;0;
83024;PMS5003;72958;53.326;-1.496;2023-11-21T09:46:31;1;1;
83024;PMS5003;72958;53.326;-1.496;2023-11-21T09:48:59;4;4;
83024;PMS5003;72958;53.326;-1.496;2023-11-21T09:51:27;11;11;
83024;PMS5003;72958;53.326;-1.496;2023-11-21T09:54:42;1;1;
83024;PMS5003;72958;53.326;-1.496;2023-11-21T09:57:28;0;0;
83024;PMS5003;72958;53.326;-1.496;2023-11-21T10:00:09;3;3;
83024;PMS5003;72958;53.326;-1.496;2023-11-21T10:03:17;1;1;
83024;PMS5003;72958;53.326;-1.496;2023-11-21T10:05:53;0;0;
83024;PMS5003;72958;53.326;-1.496;2023-11-21T10:08:31;1;1;
83024;PMS5003;72958;53.326;-1.496;2023-11-21T10:11:27;1;1;
83024;PMS5003;72958;53.326;-1.496;2023-11-21T10:14:34;2;1;
83024;PMS5003;72958;53.326;-1.496;2023-11-21T10:17:39;0;0;
83024;PMS5003;72958;53.326;-1.496;2023-11-21T10:20:10;0;0;
83024;PMS5003;72958;53.326;-1.496;2023-11-21T10:22:55;1;1;
83024;PMS5003;72958;53.326;-1.496;2023-11-21T10:25:29;1;1;
83024;PMS5003;72958;53.326;-1.496;2023-11-21T10:28:31;0;0;
83024;PMS5003;72958;53.326;-1.496;2023-11-21T10:31:42;0;0;
83024;PMS5003;72958;53.326;-1.496;2023-11-21T10:34:16;2;2;
83024;PMS5003;72958;53.326;-1.496;2023-11-21T10:36:58;1;1;
83024;PMS5003;72958;53.326;-1.496;2023-11-21T10:39:49;0;0;
83024;PMS5003;72958;53.326;-1.496;2023-11-21T10:42:15;0;0;
83024;PMS5003;72958;53.326;-1.496;2023-11-21T10:44:43;0;0;
83024;PMS5003;72958;53.326;-1.496;2023-11-21T10:47:43;1;1;
83024;PMS5003;72958;53.326;-1.496;2023-11-21T10:50:48;0;0;
83024;PMS5003;72958;53.326;-1.496;2023-11-21T10:53:19;1;1;
83024;PMS5003;72958;53.326;-1.496;2023-11-21T10:55:47;0;0;
83024;PMS5003;72958;53.326;-1.496;2023-11-21T10:58:21;1;0;
83024;PMS5003;72958;53.326;-1.496;2023-11-21T11:01:07;2;2;
83024;PMS5003;72958;53.326;-1.496;2023-11-21T11:04:09;0;0;
83024;PMS5003;72958;53.326;-1.496;2023-11-21T11:06:42;0;0;
83024;PMS5003;72958;53.326;-1.496;2023-11-21T11:09:46;1;1;
83024;PMS5003;72958;53.326;-1.496;2023-11-21T11:14:16;0;0;
83024;PMS5003;72958;53.326;-1.496;2023-11-21T11:17:41;1;1;
83024;PMS5003;72958;53.326;-1.496;2023-11-21T11:20:11;0;0;
83024;PMS5003;72958;53.326;-1.496;2023-11-21T11:23:04;0;0;
83024;PMS5003;72958;53.326;-1.496;2023-11-21T11:25:34;2;0;
83024;PMS5003;72958;53.326;-1.496;2023-11-21T11:27:58;1;1;
83024;PMS5003;72958;53.326;-1.496;2023-11-21T11:30:35;0;0;
83024;PMS5003;72958;53.326;-1.496;2023-11-21T11:33:25;0;0;
83024;PMS5003;72958;53.326;-1.496;2023-11-21T11:36:15;1;1;
83024;PMS5003;72958;53.326;-1.496;2023-11-21T11:42:07;0;0;
83024;PMS5003;72958;53.326;-1.496;2023-11-21T11:45:18;0;0;
83024;PMS5003;72958;53.326;-1.496;2023-11-21T11:48:04;1;1;
83024;PMS5003;72958;53.326;-1.496;2023-11-21T11:54:40;2;0;
83024;PMS5003;72958;53.326;-1.496;2023-11-21T11:57:07;0;0;
83024;PMS5003;72958;53.326;-1.496;2023-11-21T12:02:28;1;1;
83024;PMS5003;72958;53.326;-1.496;2023-11-21T12:05:20;1;1;
83024;PMS5003;72958;53.326;-1.496;2023-11-21T12:07:50;0;0;
83024;PMS5003;72958;53.326;-1.496;2023-11-21T12:10:31;0;0;
83024;PMS5003;72958;53.326;-1.496;2023-11-21T12:12:56;2;2;
83024;PMS5003;72958;53.326;-1.496;2023-11-21T12:15:41;0;0;
83024;PMS5003;72958;53.326;-1.496;2023-11-21T12:18:07;1;1;
83024;PMS5003;72958;53.326;-1.496;2023-11-21T12:21:31;1;1;
83024;PMS5003;72958;53.326;-1.496;2023-11-21T12:23:56;1;1;
83024;PMS5003;72958;53.326;-1.496;2023-11-21T12:26:29;2;2;
83024;PMS5003;72958;53.326;-1.496;2023-11-21T12:28:57;1;1;
83024;PMS5003;72958;53.326;-1.496;2023-11-21T12:31:41;0;0;
83024;PMS5003;72958;53.326;-1.496;2023-11-21T12:34:11;1;1;
83024;PMS5003;72958;53.326;-1.496;2023-11-21T12:36:49;2;2;
83024;PMS5003;72958;53.326;-1.496;2023-11-21T12:39:22;3;3;
83024;PMS5003;72958;53.326;-1.496;2023-11-21T12:41:57;0;0;
83024;PMS5003;72958;53.326;-1.496;2023-11-21T12:44:22;7;7;
83024;PMS5003;72958;53.326;-1.496;2023-11-21T12:47:16;0;0;
83024;PMS5003;72958;53.326;-1.496;2023-11-21T12:49:50;0;0;
83024;PMS5003;72958;53.326;-1.496;2023-11-21T12:52:18;0;0;
83024;PMS5003;72958;53.326;-1.496;2023-11-21T12:55:22;0;0;
83024;PMS5003;72958;53.326;-1.496;2023-11-21T12:57:56;0;0;
83024;PMS5003;72958;53.326;-1.496;2023-11-21T13:00:32;0;0;
83024;PMS5003;72958;53.326;-1.496;2023-11-21T13:03:27;0;0;
83024;PMS5003;72958;53.326;-1.496;2023-11-21T13:06:14;0;0;
83024;PMS5003;72958;53.326;-1.496;2023-11-21T13:08:40;0;0;
83024;PMS5003;72958;53.326;-1.496;2023-11-21T13:11:13;1;1;
83024;PMS5003;72958;53.326;-1.496;2023-11-21T13:13:51;2;2;
83024;PMS5003;72958;53.326;-1.496;2023-11-21T13:16:17;0;0;
83024;PMS5003;72958;53.326;-1.496;2023-11-21T13:18:44;0;0;
83024;PMS5003;72958;53.326;-1.496;2023-11-21T13:21:16;1;1;
83024;PMS5003;72958;53.326;-1.496;2023-11-21T13:24:30;1;1;
83024;PMS5003;72958;53.326;-1.496;2023-11-21T13:27:11;0;0;
83024;PMS5003;72958;53.326;-1.496;2023-11-21T13:29:48;2;2;
83024;PMS5003;72958;53.326;-1.496;2023-11-21T13:32:43;1;1;
83024;PMS5003;72958;53.326;-1.496;2023-11-21T13:36:30;1;1;
83024;PMS5003;72958;53.326;-1.496;2023-11-21T13:38:59;2;2;
83024;PMS5003;72958;53.326;-1.496;2023-11-21T13:41:29;0;0;
83024;PMS5003;72958;53.326;-1.496;2023-11-21T13:44:11;1;1;
83024;PMS5003;72958;53.326;-1.496;2023-11-21T13:46:39;0;0;
83024;PMS5003;72958;53.326;-1.496;2023-11-21T13:49:04;0;0;
83024;PMS5003;72958;53.326;-1.496;2023-11-21T13:51:30;1;0;
83024;PMS5003;72958;53.326;-1.496;2023-11-21T13:54:13;0;0;
83024;PMS5003;72958;53.326;-1.496;2023-11-21T13:56:41;2;2;
83024;PMS5003;72958;53.326;-1.496;2023-11-21T13:59:21;1;1;
83024;PMS5003;72958;53.326;-1.496;2023-11-21T14:01:49;3;3;
83024;PMS5003;72958;53.326;-1.496;2023-11-21T14:04:37;3;1;
83024;PMS5003;72958;53.326;-1.496;2023-11-21T14:07:35;1;1;
83024;PMS5003;72958;53.326;-1.496;2023-11-21T14:10:10;0;0;
83024;PMS5003;72958;53.326;-1.496;2023-11-21T14:13:07;1;1;
83024;PMS5003;72958;53.326;-1.496;2023-11-21T14:16:02;3;3;
83024;PMS5003;72958;53.326;-1.496;2023-11-21T14:18:42;0;0;
83024;PMS5003;72958;53.326;-1.496;2023-11-21T14:21:21;0;0;
83024;PMS5003;72958;53.326;-1.496;2023-11-21T14:24:10;0;0;
83024;PMS5003;72958;53.326;-1.496;2023-11-21T14:26:37;1;1;
83024;PMS5003;72958;53.326;-1.496;2023-11-21T14:29:14;0;0;
83024;PMS5003;72958;53.326;-1.496;2023-11-21T14:32:33;0;0;
83024;PMS5003;72958;53.326;-1.496;2023-11-21T14:35:09;1;1;
83024;PMS5003;72958;53.326;-1.496;2023-11-21T14:37:35;0;0;
83024;PMS5003;72958;53.326;-1.496;2023-11-21T14:40:16;0;0;
83024;PMS5003;72958;53.326;-1.496;2023-11-21T14:42:47;0;0;
83024;PMS5003;72958;53.326;-1.496;2023-11-21T14:45:22;0;0;
83024;PMS5003;72958;53.326;-1.496;2023-11-21T14:48:01;1;1;
83024;PMS5003;72958;53.326;-1.496;2023-11-21T14:50:33;1;1;
83024;PMS5003;72958;53.326;-1.496;2023-11-21T14:54:05;0;0;
83024;PMS5003;72958;53.326;-1.496;2023-11-21T14:56:56;0;0;
83024;PMS5003;72958;53.326;-1.496;2023-11-21T14:59:24;0;0;
83024;PMS5003;72958;53.326;-1.496;2023-11-21T15:01:57;0;0;
83024;PMS5003;72958;53.326;-1.496;2023-11-21T15:04:49;0;0;
83024;PMS5003;72958;53.326;-1.496;2023-11-21T15:07:35;0;0;
83024;PMS5003;72958;53.326;-1.496;2023-11-21T15:10:33;0;0;
83024;PMS5003;72958;53.326;-1.496;2023-11-21T15:13:13;0;0;
83024;PMS5003;72958;53.326;-1.496;2023-11-21T15:15:52;1;1;
83024;PMS5003;72958;53.326;-1.496;2023-11-21T15:18:18;0;0;
83024;PMS5003;72958;53.326;-1.496;2023-11-21T15:21:04;2;2;
83024;PMS5003;72958;53.326;-1.496;2023-11-21T15:23:52;1;1;
83024;PMS5003;72958;53.326;-1.496;2023-11-21T15:26:17;0;0;
83024;PMS5003;72958;53.326;-1.496;2023-11-21T15:28:46;0;0;
83024;PMS5003;72958;53.326;-1.496;2023-11-21T15:31:18;0;0;
83024;PMS5003;72958;53.326;-1.496;2023-11-21T15:33:52;0;0;
83024;PMS5003;72958;53.326;-1.496;2023-11-21T15:36:36;0;0;
83024;PMS5003;72958;53.326;-1.496;2023-11-21T15:39:07;1;1;
83024;PMS5003;72958;53.326;-1.496;2023-11-21T15:41:37;2;2;
83024;PMS5003;72958;53.326;-1.496;2023-11-21T15:44:26;0;0;
83024;PMS5003;72958;53.326;-1.496;2023-11-21T15:47:25;3;3;
83024;PMS5003;72958;53.326;-1.496;2023-11-21T15:49:56;0;0;
83024;PMS5003;72958;53.326;-1.496;2023-11-21T15:52:21;1;1;
83024;PMS5003;72958;53.326;-1.496;2023-11-21T15:54:52;3;1;
83024;PMS5003;72958;53.326;-1.496;2023-11-21T15:57:20;0;0;
83024;PMS5003;72958;53.326;-1.496;2023-11-21T16:01:34;1;1;
83024;PMS5003;72958;53.326;-1.496;2023-11-21T16:04:24;1;1;
83024;PMS5003;72958;53.326;-1.496;2023-11-21T16:07:08;0;0;
83024;PMS5003;72958;53.326;-1.496;2023-11-21T16:10:08;1;1;
83024;PMS5003;72958;53.326;-1.496;2023-11-21T16:12:40;1;1;
83024;PMS5003;72958;53.326;-1.496;2023-11-21T16:15:10;2;2;
83024;PMS5003;72958;53.326;-1.496;2023-11-21T16:17:37;2;2;
83024;PMS5003;72958;53.326;-1.496;2023-11-21T16:20:36;0;0;
83024;PMS5003;72958;53.326;-1.496;2023-11-21T16:23:41;1;1;
83024;PMS5003;72958;53.326;-1.496;2023-11-21T16:27:08;1;1;
83024;PMS5003;72958;53.326;-1.496;2023-11-21T16:29:46;0;0;
83024;PMS5003;72958;53.326;-1.496;2023-11-21T16:32:58;2;2;
83024;PMS5003;72958;53.326;-1.496;2023-11-21T16:35:24;1;1;
83024;PMS5003;72958;53.326;-1.496;2023-11-21T16:38:12;1;1;
83024;PMS5003;72958;53.326;-1.496;2023-11-21T16:41:39;1;1;
83024;PMS5003;72958;53.326;-1.496;2023-11-21T16:44:35;2;1;
83024;PMS5003;72958;53.326;-1.496;2023-11-21T16:47:32;0;0;
83024;PMS5003;72958;53.326;-1.496;2023-11-21T16:50:17;2;2;
83024;PMS5003;72958;53.326;-1.496;2023-11-21T16:52:55;1;1;
83024;PMS5003;72958;53.326;-1.496;2023-11-21T16:56:08;4;2;
83024;PMS5003;72958;53.326;-1.496;2023-11-21T16:58:39;3;1;
83024;PMS5003;72958;53.326;-1.496;2023-11-21T17:01:11;1;1;
83024;PMS5003;72958;53.326;-1.496;2023-11-21T17:03:45;1;1;
83024;PMS5003;72958;53.326;-1.496;2023-11-21T17:06:32;1;1;
83024;PMS5003;72958;53.326;-1.496;2023-11-21T17:09:15;2;2;
83024;PMS5003;72958;53.326;-1.496;2023-11-21T17:11:46;1;1;
83024;PMS5003;72958;53.326;-1.496;2023-11-21T17:14:12;1;1;
83024;PMS5003;72958;53.326;-1.496;2023-11-21T17:16:38;0;0;
83024;PMS5003;72958;53.326;-1.496;2023-11-21T17:19:10;1;1;
83024;PMS5003;72958;53.326;-1.496;2023-11-21T17:23:03;1;1;
83024;PMS5003;72958;53.326;-1.496;2023-11-21T17:25:42;2;2;
83024;PMS5003;72958;53.326;-1.496;2023-11-21T17:29:12;3;2;
83024;PMS5003;72958;53.326;-1.496;2023-11-21T17:31:38;1;1;
83024;PMS5003;72958;53.326;-1.496;2023-11-21T17:34:22;1;1;
83024;PMS5003;72958;53.326;-1.496;2023-11-21T17:36:59;1;1;
83024;PMS5003;72958;53.326;-1.496;2023-11-21T17:39:57;3;3;
83024;PMS5003;72958;53.326;-1.496;2023-11-21T17:43:14;2;2;
83024;PMS5003;72958;53.326;-1.496;2023-11-21T17:46:08;2;2;
83024;PMS5003;72958;53.326;-1.496;2023-11-21T17:49:38;4;3;
83024;PMS5003;72958;53.326;-1.496;2023-11-21T17:52:06;4;4;
83024;PMS5003;72958;53.326;-1.496;2023-11-21T17:54:39;4;4;
83024;PMS5003;72958;53.326;-1.496;2023-11-21T17:57:14;4;4;
83024;PMS5003;72958;53.326;-1.496;2023-11-21T17:59:44;3;3;
83024;PMS5003;72958;53.326;-1.496;2023-11-21T18:02:50;6;6;
83024;PMS5003;72958;53.326;-1.496;2023-11-21T18:05:24;5;5;
83024;PMS5003;72958;53.326;-1.496;2023-11-21T18:08:03;4;4;
83024;PMS5003;72958;53.326;-1.496;2023-11-21T18:10:28;8;8;
83024;PMS5003;72958;53.326;-1.496;2023-11-21T18:13:37;5;5;
83024;PMS5003;72958;53.326;-1.496;2023-11-21T18:16:01;4;4;
83024;PMS5003;72958;53.326;-1.496;2023-11-21T18:18:47;1;1;
83024;PMS5003;72958;53.326;-1.496;2023-11-21T18:21:22;4;4;
83024;PMS5003;72958;53.326;-1.496;2023-11-21T18:24:09;7;6;
83024;PMS5003;72958;53.326;-1.496;2023-11-21T18:26:36;4;4;
83024;PMS5003;72958;53.326;-1.496;2023-11-21T18:29:32;6;4;
83024;PMS5003;72958;53.326;-1.496;2023-11-21T18:31:57;1;1;
83024;PMS5003;72958;53.326;-1.496;2023-11-21T18:34:41;4;4;
83024;PMS5003;72958;53.326;-1.496;2023-11-21T18:37:11;4;4;
83024;PMS5003;72958;53.326;-1.496;2023-11-21T18:40:40;5;5;
83024;PMS5003;72958;53.326;-1.496;2023-11-21T18:43:42;6;6;
83024;PMS5003;72958;53.326;-1.496;2023-11-21T18:46:28;11;11;
83024;PMS5003;72958;53.326;-1.496;2023-11-21T18:49:11;12;12;